METAR Data
IDs: Format: Raw Decoded Include TAF

Data at: 0309 UTC 23 Apr 2021

YNWN 230200Z AUTO 08011KT 9999 // NCD 25/03 Q1021
YNWN 230100Z AUTO 08012KT 9999 // NCD 23/04 Q1021
YNWN 230000Z AUTO 07008KT 9999 // NCD 20/05 Q1020
YNWN 222300Z AUTO 00000KT 9999 // NCD 14/06 Q1020
YNWN 222200Z AUTO 00000KT 9999 // NCD 11/06 Q1019
YNWN 222100Z AUTO 00000KT 9999 // NCD 12/06 Q1019
YNWN 222000Z AUTO 17004KT 9999 // NCD 12/05 Q1019
YNWN 221900Z AUTO 17005KT 9999 // NCD 13/06 Q1018
YNWN 221800Z AUTO 15003KT 9999 // NCD 13/05 Q1019
YNWN 221700Z AUTO 15003KT 9999 // NCD 15/06 Q1019
YNWN 221600Z AUTO 09004KT 9999 // NCD 16/06 Q1019
YNWN 221500Z AUTO 09001KT 9999 // NCD 16/06 Q1019
YNWN 221400Z AUTO 09004KT 9999 // NCD 16/07 Q1020
YNWN 221300Z AUTO 09004KT 9999 // NCD 18/06 Q1020
YNWN 221200Z AUTO 09005KT 9999 // NCD 20/05 Q1019
YNWN 221100Z AUTO 09004KT 9999 // NCD 22/04 Q1019
YNWN 221000Z AUTO 09005KT 9999 // NCD 25/00 Q1018
YNWN 220900Z AUTO 10009KT 9999 // NCD 28/M03 Q1017
YNWN 220800Z AUTO 09009KT 9999 // NCD 29/M03 Q1017
YNWN 220700Z AUTO 08009KT 9999 // NCD 29/M02 Q1017
YNWN 220600Z AUTO 04008KT 9999 // NCD 29/M01 Q1018
YNWN 220500Z AUTO 12009KT 9999 // NCD 28/M03 Q1018
YNWN 220400Z AUTO 07007KT 050V120 9999 // NCD 29/M03 Q1019
YNWN 220300Z AUTO 06009KT 030V090 9999 // NCD 28/M02 Q1020
YNWN 220200Z AUTO 03006KT 9999 // NCD 26/02 Q1021
YNWN 220100Z AUTO 03004KT 9999 // NCD 23/04 Q1021
YNWN 220000Z AUTO 00000KT 9999 // NCD 18/07 Q1020
YNWN 212300Z AUTO 24003KT 9999 // NCD 13/07 Q1020
YNWN 212200Z AUTO 23003KT 9999 // NCD 12/06 Q1020
YNWN 212100Z AUTO 22005KT 9999 // NCD 12/07 Q1019
YNWN 212000Z AUTO 16004KT 9999 // NCD 13/08 Q1018
YNWN 211900Z AUTO 17004KT 9999 // NCD 13/08 Q1018
YNWN 211800Z AUTO 22004KT 9999 // NCD 14/07 Q1019
YNWN 211700Z AUTO 00000KT 9999 // NCD 14/09 Q1019
YNWN 211600Z AUTO 00000KT 9999 // NCD 15/10 Q1019